KNIP/NIP METAR and TAF weather

Enter ICAO airport designator
Station Type Date Time Source
KNIP METAR 2022/06/26 08:53 UTC NOAA

KNIP 260853Z 08004KT 10SM FEW027 FEW250 25/22 A3005 RMK AO2 SLP173 T02500217 56010


Station Type Date Time Source
KNIP Decoded METAR 2022/06/26 08:53 UTC NOAA

JACKSONVILLE NAVAL AIR STN, FL, United States (KNIP) 30-14N 81-40W 8M
Jun 26, 2022 - 04:53 AM EDT / 2022.06.26 0853 UTC
Wind: from the E (080 degrees) at 5 MPH (4 KT):0
Visibility: 10 mile(s):0
Sky conditions: mostly clear
Temperature: 77.0 F (25.0 C)
Dew Point: 71.1 F (21.7 C)
Relative Humidity: 81%
Pressure (altimeter): 30.05 in. Hg (1017 hPa)
Pressure tendency: 0.03 inches (1.0 hPa) lower than three hours ago
ob: KNIP 260853Z 08004KT 10SM FEW027 FEW250 25/22 A3005 RMK AO2 SLP173 T02500217 56010
cycle: 9

Station Type Date Time Source
KNIP TAF 2022/06/26 07:03 UTC NOAA

TAF KNIP 2607/2707 05008KT 9999 SCT030 BKN280 QNH3000INS
BECMG 2615/2617 07013KT 9999 SCT035 BKN250 QNH3003INS
BECMG 2704/2706 VRB04KT 9999 FEW035 SCT220 QNH3000INS T25/2509Z T31/2618Z FN00236

Example: see airport list